Time;durP1;ratioP1;P1;durP2;ratioP2;P2;SDS_P1;SDS_P2;PMS_P1;PMS_P2;Temp;Humidity;BMP_temperature;BMP_pressure;BME280_temperature;BME280_humidity;BME280_pressure;Samples;Min_cycle;Max_cycle;Signal;HPM_P1;HPM_P2
2023/07/22 00:01:22;;;;;;;;;10.75;10.75;;;;;16.79;100.00;97867.41;4956232;28;102458;-73
2023/07/22 00:03:50;;;;;;;;;8.00;7.33;;;;;16.91;100.00;97887.16;4943476;28;105065;-75
2023/07/22 00:06:17;;;;;;;;;8.00;8.00;;;;;16.91;100.00;97903.56;4937135;28;103149;-73
2023/07/22 00:08:44;;;;;;;;;9.50;9.25;;;;;16.84;100.00;97886.53;4953572;28;102196;-73
2023/07/22 00:11:11;;;;;;;;;8.67;8.33;;;;;16.56;100.00;97837.66;4954052;28;102402;-73
2023/07/22 00:13:38;;;;;;;;;8.00;7.75;;;;;16.69;100.00;97861.84;4947280;28;104271;-73
2023/07/22 00:16:07;;;;;;;;;6.00;5.00;;;;;16.89;100.00;97892.03;4941735;28;102359;-73
2023/07/22 00:18:35;;;;;;;;;5.33;4.67;;;;;16.84;100.00;97886.53;4966348;28;102382;-73
2023/07/22 00:21:02;;;;;;;;;5.00;5.00;;;;;16.91;100.00;97887.16;4951458;28;102755;-72
2023/07/22 00:23:30;;;;;;;;;4.33;4.33;;;;;16.82;100.00;97866.03;4940807;28;103225;-73
2023/07/22 00:25:57;;;;;;;;;3.67;3.67;;;;;16.96;100.00;97883.66;4919721;28;102727;-73
2023/07/22 00:28:24;;;;;;;;;5.00;4.33;;;;;16.82;100.00;97866.88;4948300;28;102128;-73
2023/07/22 00:30:53;;;;;;;;;3.33;3.33;;;;;16.76;100.00;97853.41;4947519;28;102379;-73
2023/07/22 00:33:20;;;;;;;;;5.00;4.00;;;;;16.88;100.00;97865.03;4966072;28;105191;-74
2023/07/22 00:35:50;;;;;;;;;4.00;3.00;;;;;16.83;100.00;97868.53;4952701;28;102171;-73
2023/07/22 00:38:19;;;;;;;;;5.33;5.33;;;;;16.89;100.00;97883.84;4946726;28;103104;-73
2023/07/22 00:40:46;;;;;;;;;4.67;4.67;;;;;16.75;100.00;97866.25;4959340;28;102496;-73
2023/07/22 00:43:13;;;;;;;;;3.33;3.33;;;;;16.66;100.00;97854.13;4946922;28;104063;-73
2023/07/22 00:45:40;;;;;;;;;5.33;5.00;;;;;16.79;100.00;97870.13;4934656;28;105138;-73
2023/07/22 00:48:13;;;;;;;;;7.33;6.33;;;;;16.80;100.00;97863.56;4943929;28;101759;-73
2023/07/22 00:50:40;;;;;;;;;6.33;5.67;;;;;16.67;100.00;97846.78;4940627;28;102133;-73
2023/07/22 00:53:08;;;;;;;;;4.33;4.00;;;;;16.66;100.00;97835.03;4946711;28;104324;-73
2023/07/22 00:55:39;;;;;;;;;3.67;3.00;;;;;16.74;100.00;97864.63;4942371;28;105461;-73
2023/07/22 00:58:06;;;;;;;;;2.67;2.67;;;;;16.72;100.00;97866.75;4943753;28;102313;-72
2023/07/22 01:00:33;;;;;;;;;4.00;4.00;;;;;16.52;100.00;97828.34;4942854;28;102194;-73
2023/07/22 01:03:01;;;;;;;;;11.00;9.50;;;;;16.58;100.00;97838.22;4932150;28;108891;-73
2023/07/22 01:05:41;;;;;;;;;9.25;9.25;;;;;16.71;100.00;97854.19;4954309;28;102038;-73
2023/07/22 01:08:35;;;;;;;;;7.00;7.00;;;;;16.61;100.00;97836.91;4942573;28;103038;-73
2023/07/22 01:11:32;;;;;;;;;6.00;6.00;;;;;16.62;100.00;97830.34;4947520;28;102875;-73
2023/07/22 01:14:17;;;;;;;;;5.00;4.00;;;;;16.52;100.00;97817.41;4951423;28;108513;-73
2023/07/22 01:17:18;;;;;;;;;5.00;5.00;;;;;16.83;100.00;97868.53;4940387;28;103881;-73
2023/07/22 01:20:00;;;;;;;;;4.67;4.67;;;;;16.86;100.00;97859.81;4933657;28;102454;-75
2023/07/22 01:22:28;;;;;;;;;3.67;3.67;;;;;16.90;100.00;97860.94;4948662;28;102567;-73
2023/07/22 01:24:59;;;;;;;;;4.00;4.00;;;;;16.94;100.00;97858.50;4952455;28;104019;-72
2023/07/22 01:27:27;;;;;;;;;4.00;4.00;;;;;16.78;100.00;97822.06;4938311;28;102988;-74
2023/07/22 01:29:54;;;;;;;;;7.33;7.00;;;;;16.66;100.00;97802.28;4950845;28;102077;-73
2023/07/22 01:32:22;;;;;;;;;6.00;6.00;;;;;17.09;100.00;97866.00;4946224;28;102104;-72
2023/07/22 01:34:50;;;;;;;;;5.33;5.33;;;;;17.02;100.00;97838.09;4946762;28;103972;-73
2023/07/22 01:37:19;;;;;;;;;3.00;3.00;;;;;16.97;100.00;97819.75;4948860;28;101987;-74
2023/07/22 01:39:56;;;;;;;;;6.00;5.00;;;;;17.13;100.00;97851.56;4947876;28;102315;-72
2023/07/22 01:42:29;;;;;;;;;9.75;9.00;;;;;17.16;100.00;97850.22;4944741;28;102317;-73
2023/07/22 01:44:58;;;;;;;;;9.33;9.33;;;;;16.83;100.00;97789.34;4938385;28;102830;-73
2023/07/22 01:47:26;;;;;;;;;6.33;6.33;;;;;16.89;100.00;97804.66;4952318;28;102059;-72
2023/07/22 01:49:53;;;;;;;;;6.33;5.33;;;;;17.16;100.00;97855.66;4950266;28;102164;-72
2023/07/22 01:52:20;;;;;;;;;7.00;7.00;;;;;17.05;100.00;97840.31;4945635;28;102321;-73
2023/07/22 01:54:57;;;;;;;;;6.00;6.00;;;;;17.16;100.00;97851.03;4926859;28;107338;-74
2023/07/22 01:57:24;;;;;;;;;5.00;5.00;;;;;17.06;100.00;97841.97;4950886;28;102197;-74
2023/07/22 01:59:57;;;;;;;;;7.33;6.33;;;;;17.15;100.00;97857.59;4948704;28;102004;-73
2023/07/22 02:02:27;;;;;;;;;6.00;6.00;;;;;17.10;100.00;97868.50;4948540;28;102056;-73
2023/07/22 02:04:58;;;;;;;;;6.33;5.67;;;;;16.83;100.00;97833.03;4953112;28;110388;-73
2023/07/22 02:07:26;;;;;;;;;5.00;5.00;;;;;17.00;100.00;97862.09;4953665;28;102183;-73
2023/07/22 02:09:56;;;;;;;;;6.00;6.00;;;;;17.08;100.00;97864.34;4949581;28;102285;-73
2023/07/22 02:12:23;;;;;;;;;4.67;4.67;;;;;17.04;100.00;97853.13;4948138;28;103182;-73
2023/07/22 02:14:50;;;;;;;;;4.33;4.33;;;;;16.88;100.00;97840.44;4949369;28;103502;-72
2023/07/22 02:17:17;;;;;;;;;4.00;3.67;;;;;16.48;100.00;97778.06;4951766;28;102404;-73
2023/07/22 02:19:47;;;;;;;;;4.00;4.00;;;;;16.72;100.00;97825.00;4951266;28;102176;-73
2023/07/22 02:22:15;;;;;;;;;4.00;3.00;;;;;16.85;100.00;97858.16;4945163;28;102266;-73
2023/07/22 02:24:45;;;;;;;;;2.67;2.67;;;;;16.83;100.00;97863.06;4948692;28;104084;-73
2023/07/22 02:27:18;;;;;;;;;4.00;3.00;;;;;16.72;100.00;97842.19;4953163;28;102278;-72
2023/07/22 02:29:45;;;;;;;;;4.00;3.67;;;;;16.88;100.00;97876.78;4941730;28;102424;-73
2023/07/22 02:32:15;;;;;;;;;3.00;3.00;;;;;16.88;100.00;97879.50;4951736;28;102590;-73
2023/07/22 02:34:42;;;;;;;;;2.67;2.67;;;;;16.78;100.00;97862.19;4949313;28;104014;-73
2023/07/22 02:37:10;;;;;;;;;3.33;3.33;;;;;16.83;100.00;97882.19;4948693;28;102321;-73
2023/07/22 02:39:37;;;;;;;;;2.00;2.00;;;;;16.82;100.00;97880.53;4938939;28;101981;-72
2023/07/22 02:42:07;;;;;;;;;4.00;3.00;;;;;16.84;100.00;97886.53;4962135;28;102001;-72
2023/07/22 02:44:36;;;;;;;;;1.00;1.00;;;;;16.72;100.00;97880.41;4942923;28;104338;-72
2023/07/22 02:47:07;;;;;;;;;2.00;2.00;;;;;16.78;100.00;97892.22;4947651;28;102943;-72
2023/07/22 02:49:34;;;;;;;;;4.67;3.00;;;;;16.81;100.00;97897.97;4949978;28;103224;-74
2023/07/22 02:52:04;;;;;;;;;2.67;2.33;;;;;16.45;100.00;97846.81;4945599;28;102206;-72
2023/07/22 02:54:31;;;;;;;;;2.67;2.67;;;;;16.78;100.00;97903.97;4944029;28;103843;-72
2023/07/22 02:57:00;;;;;;;;;2.00;2.00;;;;;16.60;100.00;97889.84;4943346;28;102645;-72
2023/07/22 02:59:27;;;;;;;;;1.00;1.00;;;;;16.69;100.00;97896.50;4950070;28;102643;-74
2023/07/22 03:01:54;;;;;;;;;4.33;3.67;;;;;16.70;100.00;97901.72;4949765;28;102325;-72
2023/07/22 03:04:21;;;;;;;;;2.33;2.33;;;;;16.45;100.00;97877.66;4946354;28;108685;-72
2023/07/22 03:06:48;;;;;;;;;3.00;3.00;;;;;16.50;100.00;97891.34;4947918;28;102366;-72
2023/07/22 03:09:15;;;;;;;;;2.67;2.67;;;;;16.48;100.00;97896.22;4945885;28;102535;-73
2023/07/22 03:11:42;;;;;;;;;3.00;3.00;;;;;16.65;100.00;97920.75;4942765;28;102338;-74
2023/07/22 03:14:11;;;;;;;;;2.33;2.33;;;;;16.56;100.00;97915.97;4953877;28;103248;-73
2023/07/22 03:16:40;;;;;;;;;2.00;1.00;;;;;16.19;100.00;97856.63;4942528;28;102956;-73
2023/07/22 03:19:07;;;;;;;;;1.00;1.00;;;;;15.95;100.00;97817.88;4936944;28;102619;-73
2023/07/22 03:21:34;;;;;;;;;3.00;3.00;;;;;16.49;100.00;97922.44;4957055;28;102402;-73
2023/07/22 03:24:02;;;;;;;;;4.00;4.00;;;;;16.59;100.00;97943.59;4947923;28;105888;-73
2023/07/22 03:26:29;;;;;;;;;4.33;4.00;;;;;16.40;100.00;97929.44;4946650;28;103227;-73
2023/07/22 03:28:56;;;;;;;;;6.00;5.00;;;;;16.52;100.00;97934.78;4949860;28;102290;-73
2023/07/22 03:31:24;;;;;;;;;7.00;5.67;;;;;16.32;100.00;97915.41;4942336;28;102122;-72
2023/07/22 03:33:53;;;;;;;;;4.00;4.00;;;;;16.31;100.00;97916.50;4951717;28;107386;-73
2023/07/22 03:36:20;;;;;;;;;4.33;4.00;;;;;16.45;100.00;97936.84;4946124;28;102441;-72
2023/07/22 03:38:47;;;;;;;;;6.33;5.67;;;;;16.36;100.00;97932.94;4918738;28;103461;-73
2023/07/22 03:41:14;;;;;;;;;4.00;3.00;;;;;16.20;100.00;97907.38;4899496;28;102080;-72
2023/07/22 03:43:44;;;;;;;;;4.00;4.00;;;;;16.29;100.00;97921.38;4949429;28;104694;-72
2023/07/22 03:46:14;;;;;;;;;3.00;3.00;;;;;16.45;100.00;97945.03;4949361;28;102321;-73
2023/07/22 03:48:44;;;;;;;;;3.00;3.00;;;;;16.34;100.00;97935.09;4941768;28;102357;-73
2023/07/22 03:51:14;;;;;;;;;3.00;3.00;;;;;16.56;100.00;97976.84;4944238;28;102712;-73
2023/07/22 03:53:46;;;;;;;;;5.00;5.00;;;;;16.41;100.00;97960.28;4932405;28;104362;-72
2023/07/22 03:56:13;;;;;;;;;6.00;5.33;;;;;16.47;100.00;97978.38;4945212;28;102357;-72
2023/07/22 03:58:43;;;;;;;;;5.33;4.33;;;;;16.55;100.00;97986.09;4940400;28;101996;-73
2023/07/22 04:01:13;;;;;;;;;5.00;4.67;;;;;16.54;100.00;97984.44;4917206;28;102240;-72
2023/07/22 04:07:28;;;;;;;;;5.00;5.00;;;;;16.60;100.00;97991.66;4940303;28;101947;-74
2023/07/22 04:09:55;;;;;;;;;5.00;5.00;;;;;16.53;100.00;97986.34;4940073;28;101944;-72
2023/07/22 04:12:29;;;;;;;;;6.00;6.00;;;;;16.61;100.00;97997.94;4940685;27;104868;-72
2023/07/22 04:14:57;;;;;;;;;6.00;6.00;;;;;16.53;100.00;97997.28;4952662;28;108607;-72
2023/07/22 04:17:24;;;;;;;;;6.33;6.00;;;;;16.47;100.00;97983.84;4948501;28;102069;-74
2023/07/22 04:19:52;;;;;;;;;8.00;8.00;;;;;16.60;100.00;98007.22;4924052;28;102041;-72
2023/07/22 04:22:29;;;;;;;;;13.17;10.17;;;;;16.55;100.00;98002.47;4926129;28;10002677;-73
2023/07/22 04:24:56;;;;;;;;;9.50;9.00;;;;;16.45;100.00;97977.78;4948705;28;102307;-73
2023/07/22 04:27:26;;;;;;;;;8.75;8.75;;;;;16.52;100.00;97994.81;4914417;28;102109;-74
2023/07/22 04:29:56;;;;;;;;;10.00;9.33;;;;;16.48;100.00;97988.19;4909244;28;102107;-72
2023/07/22 04:32:30;;;;;;;;;10.25;10.25;;;;;16.50;100.00;97994.22;4887329;28;108753;-73
2023/07/22 04:35:00;;;;;;;;;7.33;7.33;;;;;16.54;100.00;97992.63;4937656;28;102590;-73
2023/07/22 04:37:28;;;;;;;;;5.00;5.00;;;;;16.60;100.00;98009.94;4934394;28;102255;-73
2023/07/22 04:39:55;;;;;;;;;7.00;6.00;;;;;16.57;100.00;98004.97;4940965;28;102226;-73
2023/07/22 04:42:27;;;;;;;;;9.00;8.00;;;;;16.55;100.00;98007.94;4945155;28;104027;-71
2023/07/22 04:45:00;;;;;;;;;6.00;5.33;;;;;16.41;100.00;97990.28;4941259;28;102435;-72
2023/07/22 04:47:29;;;;;;;;;8.50;8.25;;;;;16.63;100.00;98031.25;4894906;28;102192;-73
2023/07/22 04:49:56;;;;;;;;;7.00;7.00;;;;;16.63;100.00;98047.66;4936701;28;102074;-72
2023/07/22 04:52:32;;;;;;;;;7.00;7.00;;;;;16.61;100.00;98034.25;4945998;28;108855;-72
2023/07/22 04:54:59;;;;;;;;;7.33;7.00;;;;;16.49;100.00;98020.69;4949489;28;102587;-72
2023/07/22 04:57:26;;;;;;;;;11.00;10.25;;;;;16.54;100.00;98044.50;4939713;28;102264;-73
2023/07/22 04:59:55;;;;;;;;;10.00;10.00;;;;;16.41;100.00;98012.94;4944862;28;102501;-73
2023/07/22 05:02:22;;;;;;;;;8.00;8.00;;;;;16.60;100.00;98051.72;4945117;28;103707;-73
2023/07/22 05:04:49;;;;;;;;;12.00;11.00;;;;;16.47;100.00;98022.88;4941420;28;102071;-73
2023/07/22 05:07:21;;;;;;;;;10.75;10.25;;;;;16.48;100.00;98037.31;4945013;28;102957;-72
2023/07/22 05:09:53;;;;;;;;;10.50;9.50;;;;;16.21;100.00;97990.03;4942608;28;102027;-73
2023/07/22 05:12:20;;;;;;;;;7.67;7.00;;;;;16.52;100.00;98025.63;4948197;28;104026;-73
2023/07/22 05:14:51;;;;;;;;;9.75;9.00;;;;;16.66;100.00;98041.69;4914738;28;102361;-73
2023/07/22 05:17:21;;;;;;;;;8.00;8.00;;;;;16.63;100.00;98058.56;4933702;28;102320;-74
2023/07/22 05:19:48;;;;;;;;;14.50;14.25;;;;;15.93;100.00;97972.75;4933796;28;102055;-74
2023/07/22 05:22:16;;;;;;;;;10.00;10.00;;;;;16.60;100.00;98064.53;4945337;28;104118;-71
2023/07/22 05:24:43;;;;;;;;;15.75;14.00;;;;;16.31;100.00;98021.00;4918668;28;103920;-71
2023/07/22 05:27:13;;;;;;;;;8.25;7.75;;;;;16.65;100.00;98068.16;4929992;28;102049;-72
2023/07/22 05:29:41;;;;;;;;;11.50;10.50;;;;;16.69;100.00;98061.13;4931567;28;103108;-73
2023/07/22 05:32:08;;;;;;;;;11.00;9.75;;;;;16.77;100.00;98066.13;4946523;28;104129;-72
2023/07/22 05:34:58;;;;;;;;;17.00;16.75;;;;;16.72;100.00;98071.53;4946387;28;102303;-73
2023/07/22 05:37:25;;;;;;;;;19.00;18.75;;;;;16.56;100.00;98047.81;4925134;28;102693;-72
2023/07/22 05:39:52;;;;;;;;;16.50;16.00;;;;;16.74;100.00;98072.09;4937483;28;103243;-72
2023/07/22 05:42:23;;;;;;;;;14.25;13.25;;;;;16.72;100.00;98060.59;4950930;28;104039;-73
2023/07/22 05:44:50;;;;;;;;;15.00;14.00;;;;;16.71;100.00;98063.56;4923779;28;102183;-73
2023/07/22 05:47:23;;;;;;;;;14.25;13.75;;;;;16.86;100.00;98089.19;4945143;28;102043;-73
2023/07/22 05:49:54;;;;;;;;;12.75;12.00;;;;;16.77;100.00;98089.88;4934329;28;102239;-73
2023/07/22 05:52:23;;;;;;;;;13.75;12.25;;;;;16.86;100.00;98086.47;4926802;28;104147;-72
2023/07/22 05:54:53;;;;;;;;;13.50;12.50;;;;;16.69;100.00;98068.47;4893754;28;102321;-72
2023/07/22 05:57:26;;;;;;;;;11.75;11.75;;;;;16.93;100.00;98099.94;4914882;28;102269;-72
2023/07/22 05:59:56;;;;;;;;;11.00;11.00;;;;;16.60;100.00;98053.63;4877531;28;102342;-72
2023/07/22 06:02:37;;;;;;;;;16.25;15.75;;;;;16.71;100.00;98099.91;4935975;27;107562;-74
2023/07/22 06:05:04;;;;;;;;;10.25;10.25;;;;;16.89;100.00;98113.25;4934422;28;102191;-73
2023/07/22 06:07:37;;;;;;;;;10.00;9.00;;;;;17.19;100.00;98106.53;4948514;28;102174;-73
2023/07/22 06:10:05;;;;;;;;;11.00;11.00;;;;;17.53;100.00;98098.97;4928431;28;102234;-72
2023/07/22 06:12:38;;;;;;;;;11.50;11.50;;;;;18.01;99.09;98106.31;4950682;28;103027;-74
2023/07/22 06:15:11;;;;;;;;;11.33;11.00;;;;;18.20;94.94;98113.00;4924338;28;102313;-73
2023/07/22 06:17:45;;;;;;;;;16.75;15.00;;;;;17.43;94.46;98031.34;4884280;28;102459;-73
2023/07/22 06:20:33;;;;;;;;;17.00;15.25;;;;;17.82;95.64;98114.88;4914478;28;102434;-73
2023/07/22 06:23:03;;;;;;;;;11.00;9.00;;;;;18.10;95.03;98102.00;4871524;28;110699;-74
2023/07/22 06:25:30;;;;;;;;;12.00;10.33;;;;;17.84;96.98;98093.56;4932083;27;102711;-73
2023/07/22 06:28:06;;;;;;;;;12.67;10.67;;;;;18.17;94.43;98105.31;4911245;28;102279;-74
2023/07/22 06:30:33;;;;;;;;;8.33;7.00;;;;;18.35;96.17;98044.69;4895318;28;103027;-74
2023/07/22 06:33:01;;;;;;;;;7.00;7.00;;;;;19.30;88.96;98101.06;4845622;28;103826;-72
2023/07/22 06:35:36;;;;;;;;;5.33;5.33;;;;;19.45;83.38;98087.41;4869789;28;102870;-72
2023/07/22 06:38:03;;;;;;;;;6.67;5.67;;;;;18.94;81.50;98022.56;4891268;28;101844;-72
2023/07/22 06:40:39;;;;;;;;;6.67;6.33;;;;;18.98;85.66;98071.06;4932421;28;102018;-72
2023/07/22 06:43:10;;;;;;;;;6.33;5.67;;;;;19.63;82.93;98120.94;4916187;28;105223;-73
2023/07/22 06:45:40;;;;;;;;;8.67;7.33;;;;;19.43;82.64;98121.66;4875202;28;103022;-73
2023/07/22 06:48:09;;;;;;;;;6.00;5.50;;;;;19.37;85.65;98118.06;4908914;28;103819;-73
2023/07/22 06:50:36;;;;;;;;;7.00;7.00;;;;;19.26;84.07;98113.66;4928197;28;102029;-72
2023/07/22 06:53:03;;;;;;;;;5.00;5.00;;;;;19.32;85.65;98119.97;4928308;28;104043;-72
2023/07/22 06:55:31;;;;;;;;;5.33;5.33;;;;;19.14;82.48;98115.78;4915532;28;102958;-73
2023/07/22 06:57:59;;;;;;;;;7.00;7.00;;;;;18.96;83.51;98110.75;4920441;28;102556;-74
2023/07/22 07:00:26;;;;;;;;;3.33;3.33;;;;;19.09;83.94;98118.53;4927688;28;102880;-73
2023/07/22 07:02:54;;;;;;;;;4.00;4.00;;;;;19.09;82.03;98116.59;4928202;28;104100;-72
2023/07/22 07:05:23;;;;;;;;;8.00;8.00;;;;;18.59;85.89;98122.66;4914610;28;103188;-73
2023/07/22 07:07:56;;;;;;;;;8.00;8.00;;;;;18.45;84.66;98131.53;4925941;28;102072;-75
2023/07/22 07:10:30;;;;;;;;;5.67;5.00;;;;;18.77;84.37;98126.84;4927473;28;102121;-73
2023/07/22 07:13:00;;;;;;;;;7.00;5.67;;;;;18.92;84.22;98128.84;4929633;28;110682;-73
2023/07/22 07:15:27;;;;;;;;;4.67;4.67;;;;;19.30;82.82;98133.97;4918222;28;102110;-73
2023/07/22 07:17:55;;;;;;;;;4.00;4.00;;;;;19.48;81.88;98141.72;4936614;28;102946;-73
2023/07/22 07:20:22;;;;;;;;;9.00;9.00;;;;;18.70;80.45;98066.81;4951755;28;102300;-72
2023/07/22 07:22:49;;;;;;;;;6.33;6.00;;;;;18.97;81.88;98129.69;4929517;28;103533;-72
2023/07/22 07:25:16;;;;;;;;;11.67;11.00;;;;;18.68;81.24;98118.31;4923166;28;102129;-73
2023/07/22 07:27:45;;;;;;;;;10.33;10.33;;;;;18.63;81.51;98115.53;4928853;28;103011;-72
2023/07/22 07:30:12;;;;;;;;;6.33;6.33;;;;;18.88;80.45;98112.09;4916969;28;104055;-72
2023/07/22 07:32:40;;;;;;;;;8.00;7.33;;;;;19.30;80.70;98141.34;4935357;28;104373;-72
2023/07/22 07:35:08;;;;;;;;;11.00;10.00;;;;;19.08;81.75;98081.25;4946703;28;102318;-72
2023/07/22 07:37:35;;;;;;;;;10.67;10.00;;;;;19.50;79.41;98123.06;4952502;28;101781;-72
2023/07/22 07:40:03;;;;;;;;;10.00;10.00;;;;;19.87;76.99;98141.25;4945487;28;105251;-74
2023/07/22 07:42:30;;;;;;;;;9.00;9.00;;;;;19.92;79.65;98139.34;4951368;28;103524;-72
2023/07/22 07:45:00;;;;;;;;;6.67;6.67;;;;;20.12;77.75;98113.84;4946390;28;102373;-74
2023/07/22 07:47:28;;;;;;;;;9.00;9.00;;;;;20.31;72.47;98147.91;4944801;28;103743;-73
2023/07/22 07:49:55;;;;;;;;;8.00;7.67;;;;;20.36;74.67;98156.16;4950481;28;102516;-73
2023/07/22 07:52:23;;;;;;;;;7.33;7.33;;;;;20.16;73.84;98142.41;4943986;28;103947;-73
2023/07/22 07:54:50;;;;;;;;;7.00;5.67;;;;;20.13;75.33;98156.66;4949749;28;102150;-72
2023/07/22 07:57:19;;;;;;;;;6.00;5.67;;;;;20.32;72.70;98163.28;4937096;28;105289;-73
2023/07/22 07:59:46;;;;;;;;;8.33;8.33;;;;;20.19;73.16;98161.06;4941768;28;102090;-72
2023/07/22 08:02:14;;;;;;;;;8.67;8.00;;;;;19.89;71.45;98119.88;4942658;28;104041;-73
2023/07/22 08:04:41;;;;;;;;;7.67;7.67;;;;;20.05;71.31;98158.03;4945307;28;102173;-72
2023/07/22 08:07:09;;;;;;;;;10.00;9.00;;;;;19.95;75.18;98158.00;4950404;28;102314;-72
2023/07/22 08:09:38;;;;;;;;;3.67;3.67;;;;;19.79;73.17;98086.94;4949411;28;102323;-72
2023/07/22 08:12:09;;;;;;;;;6.00;6.00;;;;;20.39;71.06;98180.34;4943530;28;102937;-73
2023/07/22 08:14:36;;;;;;;;;4.67;4.67;;;;;20.41;68.48;98167.13;4954468;28;102460;-73
2023/07/22 08:17:03;;;;;;;;;6.67;6.00;;;;;20.49;70.91;98183.06;4949463;28;102044;-73
2023/07/22 08:19:30;;;;;;;;;3.67;3.67;;;;;20.76;66.76;98184.69;4959108;28;102418;-72
2023/07/22 08:21:57;;;;;;;;;4.67;4.67;;;;;20.74;65.49;98197.91;4952383;28;107538;-72
2023/07/22 08:24:24;;;;;;;;;4.33;4.33;;;;;20.72;67.42;98161.59;4948572;28;102840;-72
2023/07/22 08:26:53;;;;;;;;;3.67;3.00;;;;;21.06;65.40;98211.31;4951815;28;101848;-72
2023/07/22 08:29:21;;;;;;;;;4.67;4.67;;;;;20.47;67.15;98187.19;4952834;28;101953;-73
2023/07/22 08:31:48;;;;;;;;;5.00;5.00;;;;;20.37;68.39;98199.00;4950347;28;104117;-74
2023/07/22 08:34:16;;;;;;;;;5.00;5.00;;;;;20.02;69.33;98215.41;4950458;28;102322;-74
2023/07/22 08:36:44;;;;;;;;;6.67;6.00;;;;;20.14;66.70;98204.97;4948383;28;102054;-73
2023/07/22 08:39:11;;;;;;;;;6.33;6.00;;;;;20.58;68.67;98224.53;4954009;28;102446;-72
2023/07/22 08:41:48;;;;;;;;;6.00;6.00;;;;;20.67;68.00;98213.84;4933758;28;104134;-72
2023/07/22 08:44:19;;;;;;;;;5.00;4.33;;;;;20.77;67.35;98233.06;4949846;28;102023;-71
2023/07/22 08:46:55;;;;;;;;;5.00;5.00;;;;;20.95;64.65;98227.00;4949650;28;102414;-72
2023/07/22 08:49:23;;;;;;;;;5.00;4.33;;;;;20.89;62.96;98230.88;4949907;28;104491;-72
2023/07/22 08:51:50;;;;;;;;;4.00;4.00;;;;;20.81;65.82;98220.41;4953707;28;103265;-72
2023/07/22 08:54:17;;;;;;;;;3.00;3.00;;;;;20.76;66.63;98213.00;4969171;28;102476;-72
2023/07/22 08:56:45;;;;;;;;;5.00;4.33;;;;;20.85;63.39;98232.50;4943477;28;102012;-73
2023/07/22 08:59:16;;;;;;;;;5.00;4.00;;;;;21.09;63.38;98227.25;4945252;28;102350;-72
2023/07/22 09:01:45;;;;;;;;;5.00;5.00;;;;;21.19;62.93;98211.59;4953073;28;103003;-71
2023/07/22 09:04:12;;;;;;;;;3.67;3.00;;;;;21.43;61.36;98224.72;4947633;28;102817;-70
2023/07/22 09:06:41;;;;;;;;;4.33;4.33;;;;;21.12;62.10;98222.00;4948075;28;102449;-71
2023/07/22 09:09:10;;;;;;;;;3.00;3.00;;;;;20.76;62.67;98223.16;4948354;28;102119;-72
2023/07/22 09:11:37;;;;;;;;;4.67;4.00;;;;;20.57;66.65;98224.81;4950871;28;104040;-71
2023/07/22 09:14:04;;;;;;;;;4.33;4.00;;;;;20.89;65.40;98220.66;4950522;28;102401;-72
2023/07/22 09:16:36;;;;;;;;;3.00;3.00;;;;;21.31;64.54;98220.34;4950623;28;102064;-72
2023/07/22 09:19:05;;;;;;;;;3.67;3.67;;;;;21.10;63.59;98234.41;4945380;28;102188;-73
2023/07/22 09:21:35;;;;;;;;;5.00;4.67;;;;;20.48;66.44;98241.88;4954592;28;104365;-73
2023/07/22 09:24:23;;;;;;;;;5.33;4.33;;;;;20.56;66.08;98251.47;4949357;28;102747;-74
2023/07/22 09:26:51;;;;;;;;;4.67;4.67;;;;;20.26;67.04;98235.72;4955521;28;102110;-73
2023/07/22 09:29:18;;;;;;;;;4.00;4.00;;;;;20.47;66.64;98248.44;4952819;28;102239;-73
2023/07/22 09:31:53;;;;;;;;;6.00;4.67;;;;;20.66;64.67;98247.91;4947069;28;104042;-73
2023/07/22 09:34:22;;;;;;;;;4.67;3.67;;;;;20.77;63.19;98222.06;4968059;28;102148;-72
2023/07/22 09:36:54;;;;;;;;;4.33;4.00;;;;;21.17;65.99;98241.28;4946348;28;102572;-73
2023/07/22 09:39:23;;;;;;;;;3.00;3.00;;;;;21.31;64.11;98239.59;4949842;28;102282;-73
2023/07/22 09:41:52;;;;;;;;;5.00;5.00;;;;;20.91;62.86;98190.16;4950059;28;104292;-73
2023/07/22 09:44:19;;;;;;;;;4.00;4.00;;;;;21.08;62.17;98218.16;4950998;28;102300;-73
2023/07/22 09:46:48;;;;;;;;;3.00;3.00;;;;;21.47;61.00;98239.56;4951931;28;102275;-71
2023/07/22 09:49:18;;;;;;;;;3.00;3.00;;;;;21.34;61.76;98219.78;4952240;28;102587;-72
2023/07/22 09:51:45;;;;;;;;;4.00;3.00;;;;;21.51;61.12;98257.16;4945135;28;104206;-72
2023/07/22 09:54:30;;;;;;;;;4.33;4.33;;;;;21.17;62.14;98230.28;4950055;28;101968;-72
2023/07/22 09:56:58;;;;;;;;;4.00;4.00;;;;;21.34;65.01;98232.72;4944791;28;104417;-73
2023/07/22 09:59:30;;;;;;;;;5.00;5.00;;;;;21.50;63.79;98236.25;4946825;28;102316;-72
2023/07/22 10:02:02;;;;;;;;;3.00;3.00;;;;;21.88;64.53;98235.56;4942076;28;108504;-72
2023/07/22 10:04:34;;;;;;;;;4.00;4.00;;;;;21.84;59.10;98222.63;4951265;28;102392;-74
2023/07/22 10:07:03;;;;;;;;;4.00;4.00;;;;;21.67;59.08;98234.81;4946802;28;102190;-72
2023/07/22 10:09:31;;;;;;;;;5.67;5.67;;;;;21.78;57.09;98246.59;4949597;28;102229;-73
2023/07/22 10:12:00;;;;;;;;;3.33;3.00;;;;;22.06;57.08;98237.69;4946107;28;108616;-73
2023/07/22 10:14:28;;;;;;;;;3.67;3.00;;;;;22.27;57.67;98227.34;4946169;28;102124;-72
2023/07/22 10:16:59;;;;;;;;;4.00;3.00;;;;;22.50;55.86;98247.88;4950536;28;102036;-73
2023/07/22 10:19:27;;;;;;;;;4.33;4.33;;;;;22.31;54.83;98247.72;4948144;28;102456;-73
2023/07/22 10:21:54;;;;;;;;;4.00;4.00;;;;;22.42;54.79;98237.47;4947239;28;103201;-72
2023/07/22 10:24:22;;;;;;;;;3.67;3.67;;;;;22.66;55.69;98235.59;4952630;28;101985;-73
2023/07/22 10:26:54;;;;;;;;;4.33;4.33;;;;;22.67;57.12;98248.28;4949953;28;102415;-73
2023/07/22 10:29:21;;;;;;;;;4.33;4.33;;;;;22.52;55.17;98216.13;4951223;28;102381;-72
2023/07/22 10:31:52;;;;;;;;;5.00;5.00;;;;;22.52;53.90;98245.63;4946018;28;104012;-72
2023/07/22 10:34:26;;;;;;;;;2.00;2.00;;;;;22.54;54.61;98244.25;4945320;28;101937;-73
2023/07/22 10:36:57;;;;;;;;;4.33;3.33;;;;;22.37;54.79;98246.59;4955336;28;102267;-74
2023/07/22 10:39:28;;;;;;;;;5.00;4.00;;;;;22.35;55.40;98247.97;4942744;28;103759;-72
2023/07/22 10:42:05;;;;;;;;;3.00;3.00;;;;;22.23;54.90;98215.28;4949904;28;108772;-72
2023/07/22 10:44:35;;;;;;;;;4.67;4.67;;;;;22.33;58.57;98219.88;4951001;28;102129;-73
2023/07/22 10:47:07;;;;;;;;;3.67;3.67;;;;;22.46;56.41;98246.78;4949337;28;102141;-72
2023/07/22 10:49:47;;;;;;;;;5.00;5.00;;;;;22.37;56.76;98235.56;4961182;28;102474;-72
2023/07/22 10:52:40;;;;;;;;;4.00;4.00;;;;;22.64;57.51;98252.44;4944737;28;103599;-71
2023/07/22 10:55:17;;;;;;;;;4.00;3.00;;;;;22.75;56.34;98244.94;4933477;28;102291;-73
2023/07/22 10:57:54;;;;;;;;;4.00;4.00;;;;;22.83;56.12;98238.78;4942031;28;102131;-71
2023/07/22 11:00:29;;;;;;;;;4.00;4.00;;;;;22.85;54.04;98250.38;4952246;28;102243;-74
2023/07/22 11:03:13;;;;;;;;;6.00;5.00;;;;;22.66;52.40;98252.97;4945331;28;105001;-73
2023/07/22 11:05:55;;;;;;;;;6.00;6.00;;;;;22.88;53.04;98263.56;4947557;28;102006;-70
2023/07/22 11:08:39;;;;;;;;;4.00;4.00;;;;;23.07;49.65;98261.75;4944202;28;102491;-71
2023/07/22 11:11:06;;;;;;;;;3.33;3.33;;;;;23.09;53.99;98255.94;4899692;28;102955;-73
2023/07/22 11:13:42;;;;;;;;;4.33;4.00;;;;;23.31;53.85;98241.66;4923184;28;104335;-73
2023/07/22 11:16:12;;;;;;;;;5.00;5.00;;;;;23.20;54.05;98226.31;4949472;28;104222;-71
2023/07/22 11:18:41;;;;;;;;;4.00;4.00;;;;;23.51;49.99;98252.50;4949012;28;102325;-71
2023/07/22 11:21:12;;;;;;;;;5.00;5.00;;;;;23.16;48.59;98259.19;4937288;28;102941;-73
2023/07/22 11:23:40;;;;;;;;;3.00;3.00;;;;;22.93;48.99;98243.41;4936708;28;104203;-72
2023/07/22 11:26:08;;;;;;;;;3.33;2.00;;;;;22.60;50.33;98247.78;4945257;28;102023;-72
2023/07/22 11:28:35;;;;;;;;;4.00;4.00;;;;;22.67;51.07;98260.13;4949622;28;101915;-71
2023/07/22 11:31:03;;;;;;;;;4.00;4.00;;;;;22.41;53.47;98230.28;4946371;28;102047;-72
2023/07/22 11:33:40;;;;;;;;;5.00;4.33;;;;;22.42;54.89;98240.22;4951752;28;108771;-73
2023/07/22 11:36:07;;;;;;;;;3.00;3.00;;;;;22.96;55.33;98251.09;4932557;28;102283;-74